Time;durP1;ratioP1;P1;durP2;ratioP2;P2;SDS_P1;SDS_P2;PMS_P1;PMS_P2;Temp;Humidity;BMP_temperature;BMP_pressure;BME280_temperature;BME280_humidity;BME280_pressure;Samples;Min_cycle;Max_cycle;Signal;HPM_P1;HPM_P2
2021/08/28 00:00:23;;;;;;;5.25;4.25;;;333.50;2329.60;;;;;;6308440;22;20007;-73
2021/08/28 00:02:49;;;;;;;7.03;4.70;;;333.50;2329.60;;;;;;6281678;22;20371;-74
2021/08/28 00:05:15;;;;;;;6.72;4.90;;;333.40;2329.60;;;;;;6281234;22;20041;-74
2021/08/28 00:07:40;;;;;;;7.70;4.93;;;333.40;2329.60;;;;;;6282671;22;20007;-74
2021/08/28 00:10:07;;;;;;;7.68;5.38;;;333.40;2329.60;;;;;;6308454;22;20018;-74
2021/08/28 00:12:33;;;;;;;7.47;4.20;;;333.40;2329.60;;;;;;6309530;22;20746;-75
2021/08/28 00:15:00;;;;;;;4.05;3.50;;;333.40;2329.60;;;;;;6308451;22;20003;-75
2021/08/28 00:17:32;;;;;;;4.93;3.90;;;333.30;2329.60;;;;;;6309086;22;20015;-76
2021/08/28 00:20:09;;;;;;;5.32;4.13;;;333.10;2329.60;;;;;;6281833;22;20003;-74
2021/08/28 00:22:36;;;;;;;7.90;4.30;;;333.10;2329.60;;;;;;6308875;22;20009;-74
2021/08/28 00:25:03;;;;;;;8.35;4.35;;;332.80;2329.60;;;;;;6308067;22;20003;-74
2021/08/28 00:27:29;;;;;;;5.68;4.22;;;333.10;2329.60;;;;;;6309013;22;19995;-73
2021/08/28 00:29:56;;;;;;;5.20;3.80;;;333.10;2329.60;;;;;;6309250;22;20007;-74
2021/08/28 00:32:21;;;;;;;5.05;4.18;;;333.10;2329.60;;;;;;6309430;22;20000;-73
2021/08/28 00:34:47;;;;;;;6.03;4.60;;;333.10;2329.60;;;;;;6308932;22;20100;-74
2021/08/28 00:37:13;;;;;;;7.72;4.75;;;333.10;2329.60;;;;;;6308658;22;20380;-73
2021/08/28 00:39:42;;;;;;;5.80;4.88;;;333.10;2329.60;;;;;;6309842;22;20007;-76
2021/08/28 00:42:08;;;;;;;6.72;4.97;;;333.10;2329.60;;;;;;6311852;22;20007;-73
2021/08/28 00:44:38;;;;;;;6.95;5.05;;;333.20;2329.60;;;;;;6312907;22;19999;-72
2021/08/28 00:47:04;;;;;;;8.70;5.90;;;333.20;2329.60;;;;;;6310823;22;20003;-74
2021/08/28 00:49:29;;;;;;;10.27;6.95;;;333.20;2329.60;;;;;;6308347;22;20052;-75
2021/08/28 00:51:55;;;;;;;11.93;8.15;;;333.30;2329.60;;;;;;6309153;22;20078;-72
2021/08/28 00:54:21;;;;;;;11.68;8.25;;;333.30;2329.60;;;;;;6310336;22;19995;-74
2021/08/28 00:56:47;;;;;;;11.05;8.15;;;333.30;2329.60;;;;;;6281280;22;20019;-73
2021/08/28 00:59:14;;;;;;;11.52;8.32;;;333.30;2329.60;;;;;;6281396;22;20028;-74
2021/08/28 01:01:42;;;;;;;13.73;8.73;;;333.30;2329.60;;;;;;6281978;22;20052;-74
2021/08/28 01:04:12;;;;;;;13.60;8.50;;;333.40;2329.60;;;;;;6309195;22;19999;-74
2021/08/28 01:07:08;;;;;;;14.70;9.18;;;333.40;2329.60;;;;;;6309422;22;20448;-74
2021/08/28 01:09:36;;;;;;;14.57;8.50;;;333.50;2329.60;;;;;;6309440;22;19999;-74
2021/08/28 01:12:15;;;;;;;13.80;9.15;;;333.50;2329.60;;;;;;6309801;22;20026;-74
2021/08/28 01:14:44;;;;;;;12.18;8.32;;;333.50;2329.60;;;;;;6281635;22;20052;-74
2021/08/28 01:17:13;;;;;;;14.63;8.90;;;333.60;2329.60;;;;;;6281158;22;20042;-74
2021/08/28 01:19:50;;;;;;;14.70;8.65;;;333.60;2329.60;;;;;;6308203;22;19999;-75
2021/08/28 01:22:19;;;;;;;12.88;7.95;;;333.60;2329.60;;;;;;6308826;22;20003;-74
2021/08/28 01:24:47;;;;;;;14.18;8.90;;;333.40;2329.60;;;;;;6311228;22;19999;-73
2021/08/28 01:27:15;;;;;;;16.17;9.95;;;333.30;2329.60;;;;;;6311829;22;20015;-74
2021/08/28 01:29:43;;;;;;;14.77;9.23;;;333.30;2329.60;;;;;;6311264;22;20003;-75
2021/08/28 01:32:12;;;;;;;18.58;10.40;;;333.30;2329.60;;;;;;6310719;22;20057;-75
2021/08/28 01:34:38;;;;;;;21.08;10.70;;;333.30;2329.60;;;;;;6282710;22;20026;-75
2021/08/28 01:37:08;;;;;;;39.58;9.00;;;333.30;2329.60;;;;;;6282338;22;20015;-76
2021/08/28 01:39:35;;;;;;;34.83;6.72;;;333.20;2329.60;;;;;;6281386;22;20003;-74
2021/08/28 01:42:03;;;;;;;32.70;6.63;;;333.20;2329.60;;;;;;6281269;22;20013;-74
2021/08/28 01:44:31;;;;;;;51.55;6.53;;;333.10;2329.60;;;;;;6255570;22;20007;-75
2021/08/28 01:46:57;;;;;;;44.85;7.15;;;332.90;2329.60;;;;;;6281403;22;20013;-75
2021/08/28 01:49:24;;;;;;;24.52;7.78;;;332.80;2329.60;;;;;;6309034;22;20309;-74
2021/08/28 01:51:50;;;;;;;33.65;8.85;;;332.80;2329.60;;;;;;6308717;22;20011;-75
2021/08/28 01:54:16;;;;;;;21.17;9.13;;;332.80;2329.60;;;;;;6307046;22;20006;-75
2021/08/28 01:56:41;;;;;;;15.93;7.88;;;332.80;2329.60;;;;;;6308327;22;20014;-75
2021/08/28 01:59:08;;;;;;;14.13;8.00;;;332.90;2329.60;;;;;;6307932;22;20003;-74
2021/08/28 02:01:33;;;;;;;13.18;7.93;;;333.00;2329.60;;;;;;6308639;22;20034;-74
2021/08/28 02:04:00;;;;;;;17.02;8.68;;;333.10;2329.60;;;;;;6308361;22;19995;-74
2021/08/28 02:06:52;;;;;;;17.55;9.13;;;333.10;2329.60;;;;;;6281820;22;20011;-75
2021/08/28 02:09:27;;;;;;;19.30;9.35;;;333.20;2329.60;;;;;;6309279;22;20003;-75
2021/08/28 02:11:56;;;;;;;21.85;9.43;;;333.20;2329.60;;;;;;6283022;22;20003;-76
2021/08/28 02:14:26;;;;;;;48.50;6.35;;;333.20;2329.60;;;;;;6308756;22;20002;-77
2021/08/28 02:16:52;;;;;;;39.47;5.47;;;333.00;2329.60;;;;;;6308228;22;20007;-77
2021/08/28 02:19:25;;;;;;;38.15;6.00;;;332.90;2329.60;;;;;;6308608;22;20045;-75
2021/08/28 02:21:56;;;;;;;39.63;6.65;;;332.90;2329.60;;;;;;6308649;22;20010;-75
2021/08/28 02:24:29;;;;;;;36.08;7.13;;;332.90;2329.60;;;;;;6308116;22;20003;-75
2021/08/28 02:27:19;;;;;;;62.80;7.68;;;333.00;2329.60;;;;;;6308908;22;20014;-75
2021/08/28 02:29:51;;;;;;;26.98;7.80;;;332.80;2329.60;;;;;;6307938;22;20066;-75
2021/08/28 02:32:17;;;;;;;23.33;7.45;;;332.80;2329.60;;;;;;6308509;22;20011;-75
2021/08/28 02:34:44;;;;;;;14.15;7.25;;;332.80;2329.60;;;;;;6307976;22;20011;-75
2021/08/28 02:37:12;;;;;;;26.15;8.52;;;332.90;2329.60;;;;;;6307528;22;20011;-76
2021/08/28 02:39:39;;;;;;;25.23;9.18;;;333.00;2329.60;;;;;;6280839;22;20434;-76
2021/08/28 02:42:06;;;;;;;18.02;8.68;;;333.00;2329.60;;;;;;6309021;22;20003;-76
2021/08/28 02:44:34;;;;;;;18.15;8.85;;;333.00;2329.60;;;;;;6308820;22;20022;-75
2021/08/28 02:47:01;;;;;;;23.52;10.57;;;333.10;2329.60;;;;;;6280460;22;20383;-75
2021/08/28 02:49:26;;;;;;;24.95;12.60;;;333.10;2329.60;;;;;;6308256;22;20010;-75
2021/08/28 02:51:52;;;;;;;29.65;10.65;;;333.10;2329.60;;;;;;6307650;22;20425;-75
2021/08/28 02:54:20;;;;;;;25.45;9.15;;;333.10;2329.60;;;;;;6307600;22;20005;-76
2021/08/28 02:56:50;;;;;;;21.70;8.52;;;333.10;2329.60;;;;;;6308483;22;20011;-74
2021/08/28 02:59:17;;;;;;;16.80;7.43;;;333.10;2329.60;;;;;;6308048;22;20010;-75
2021/08/28 03:01:44;;;;;;;15.60;8.95;;;333.10;2329.60;;;;;;6307747;22;20003;-75
2021/08/28 03:04:11;;;;;;;23.65;7.22;;;333.00;2329.60;;;;;;6280143;22;20011;-75
2021/08/28 03:06:37;;;;;;;23.35;7.03;;;333.00;2329.60;;;;;;6307542;22;20018;-76
2021/08/28 03:09:02;;;;;;;24.17;7.53;;;333.00;2329.60;;;;;;6308213;22;20000;-75
2021/08/28 03:11:28;;;;;;;18.77;8.18;;;333.00;2329.60;;;;;;6308314;22;20014;-75
2021/08/28 03:13:54;;;;;;;16.42;6.78;;;333.00;2329.60;;;;;;6280025;22;20082;-75
2021/08/28 03:16:28;;;;;;;16.98;6.55;;;333.00;2329.60;;;;;;6307631;22;20078;-76
2021/08/28 03:18:56;;;;;;;15.05;6.50;;;332.90;2329.60;;;;;;6279976;22;20003;-75
2021/08/28 03:21:24;;;;;;;16.50;6.90;;;333.00;2329.60;;;;;;6308213;22;19996;-76
2021/08/28 03:23:51;;;;;;;13.90;6.32;;;332.90;2329.60;;;;;;6306400;22;20091;-76
2021/08/28 03:26:21;;;;;;;10.32;6.40;;;332.90;2329.60;;;;;;6308273;22;20452;-75
2021/08/28 03:28:48;;;;;;;10.40;6.35;;;333.00;2329.60;;;;;;6308525;22;20003;-76
2021/08/28 03:31:16;;;;;;;8.30;6.22;;;333.00;2329.60;;;;;;6280081;22;20015;-75
2021/08/28 03:33:45;;;;;;;10.95;7.18;;;333.00;2329.60;;;;;;6307179;22;20437;-75
2021/08/28 03:36:11;;;;;;;18.92;6.53;;;333.00;2329.60;;;;;;6307299;22;20019;-75
2021/08/28 03:38:38;;;;;;;9.80;6.65;;;333.10;2329.60;;;;;;6307644;22;20077;-76
2021/08/28 03:41:03;;;;;;;10.00;6.10;;;333.20;2329.60;;;;;;6280900;22;20006;-76
2021/08/28 03:43:32;;;;;;;10.35;6.72;;;333.20;2329.60;;;;;;6307772;22;20082;-75
2021/08/28 03:45:58;;;;;;;7.68;5.90;;;333.20;2329.60;;;;;;6308157;22;20013;-75
2021/08/28 03:48:24;;;;;;;9.02;6.45;;;333.30;2329.60;;;;;;6308273;22;20321;-76
2021/08/28 03:50:49;;;;;;;8.80;5.88;;;333.30;2329.60;;;;;;6308244;22;20007;-76
2021/08/28 03:53:15;;;;;;;8.82;6.03;;;333.30;2329.60;;;;;;6307659;22;20030;-76
2021/08/28 03:55:41;;;;;;;14.10;6.15;;;333.30;2329.60;;;;;;6307763;22;20007;-76
2021/08/28 03:58:07;;;;;;;19.20;6.57;;;333.20;2329.60;;;;;;6307756;22;20079;-76
2021/08/28 04:00:33;;;;;;;24.00;6.75;;;333.20;2329.60;;;;;;6306851;22;20321;-76
2021/08/28 04:02:59;;;;;;;28.45;7.47;;;333.20;2329.60;;;;;;6279487;22;20027;-76
2021/08/28 04:05:25;;;;;;;25.10;7.50;;;333.20;2329.60;;;;;;6307016;22;20003;-76
2021/08/28 04:07:51;;;;;;;30.60;8.15;;;333.10;2329.60;;;;;;6307784;22;20447;-75
2021/08/28 04:10:18;;;;;;;31.17;8.93;;;333.10;2329.60;;;;;;6308045;22;19996;-76
2021/08/28 04:12:44;;;;;;;42.80;8.77;;;333.10;2329.60;;;;;;6307862;22;19999;-76
2021/08/28 04:15:10;;;;;;;25.63;8.27;;;333.10;2329.60;;;;;;6307758;22;20002;-76
2021/08/28 04:17:36;;;;;;;29.40;8.52;;;333.40;2329.60;;;;;;6306990;22;20041;-75
2021/08/28 04:20:03;;;;;;;46.45;9.35;;;333.10;2329.60;;;;;;6310182;22;20023;-76
2021/08/28 04:22:29;;;;;;;33.15;7.38;;;333.10;2329.60;;;;;;6309127;22;20074;-76
2021/08/28 04:24:55;;;;;;;27.55;6.90;;;333.10;2329.60;;;;;;6309212;22;20029;-76
2021/08/28 04:27:21;;;;;;;40.05;7.70;;;333.00;2329.60;;;;;;6310031;22;19999;-76
2021/08/28 04:29:47;;;;;;;15.65;6.47;;;333.00;2329.60;;;;;;6309454;22;20302;-76
2021/08/28 04:32:13;;;;;;;12.80;7.22;;;333.00;2329.60;;;;;;6309913;22;20087;-76
2021/08/28 04:34:38;;;;;;;12.18;6.65;;;333.00;2329.60;;;;;;6309472;22;20364;-76
2021/08/28 04:37:04;;;;;;;12.75;7.28;;;333.10;2329.60;;;;;;6309226;22;20015;-76
2021/08/28 04:39:30;;;;;;;13.18;6.47;;;333.00;2329.60;;;;;;6309562;22;19999;-76
2021/08/28 04:41:56;;;;;;;9.20;6.40;;;333.00;2329.60;;;;;;6310391;22;20018;-76
2021/08/28 04:44:21;;;;;;;7.85;6.07;;;333.00;2329.60;;;;;;6309777;22;20429;-75
2021/08/28 04:46:47;;;;;;;9.13;6.57;;;333.00;2329.60;;;;;;6282473;22;20004;-75
2021/08/28 04:49:13;;;;;;;7.97;6.10;;;333.00;2329.60;;;;;;6281761;22;20371;-76
2021/08/28 04:51:39;;;;;;;10.00;6.63;;;333.10;2329.60;;;;;;6309861;22;20019;-75
2021/08/28 04:54:05;;;;;;;9.30;6.35;;;333.20;2329.60;;;;;;6280985;22;20329;-75
2021/08/28 04:56:30;;;;;;;8.55;6.55;;;333.30;2329.60;;;;;;6309523;22;20008;-76
2021/08/28 04:58:56;;;;;;;9.13;6.95;;;333.30;2329.60;;;;;;6281945;22;20015;-76
2021/08/28 05:01:22;;;;;;;9.60;5.85;;;333.30;2329.60;;;;;;6309794;22;20077;-76
2021/08/28 05:03:48;;;;;;;8.40;5.53;;;333.40;2329.60;;;;;;6310011;22;20070;-76
2021/08/28 05:06:13;;;;;;;6.93;5.22;;;333.40;2329.60;;;;;;6309636;22;20003;-76
2021/08/28 05:08:39;;;;;;;8.57;5.22;;;333.30;2329.60;;;;;;6309554;22;20006;-76
2021/08/28 05:11:05;;;;;;;5.95;4.80;;;333.30;2329.60;;;;;;6308507;22;19995;-75
2021/08/28 05:13:31;;;;;;;6.35;5.18;;;333.50;2329.60;;;;;;6309476;22;20460;-75
2021/08/28 05:15:57;;;;;;;5.53;4.68;;;333.60;2329.60;;;;;;6309004;22;20009;-76
2021/08/28 05:18:22;;;;;;;6.97;4.70;;;333.70;2329.60;;;;;;6310001;22;20011;-76
2021/08/28 05:20:48;;;;;;;4.60;4.03;;;358.40;2329.60;;;;;;6309853;22;20010;-77
2021/08/28 05:23:14;;;;;;;4.05;3.45;;;358.50;2329.60;;;;;;6309149;22;20018;-76
2021/08/28 05:25:39;;;;;;;4.95;3.75;;;358.70;2329.60;;;;;;6309857;22;20321;-76
2021/08/28 05:28:05;;;;;;;5.95;3.90;;;358.80;2329.60;;;;;;6308467;22;20006;-76
2021/08/28 05:30:31;;;;;;;4.22;3.65;;;358.90;2329.60;;;;;;6307741;22;20000;-73
2021/08/28 05:32:57;;;;;;;4.45;4.05;;;359.00;2329.60;;;;;;6308133;22;20017;-72
2021/08/28 05:35:22;;;;;;;4.25;3.85;;;359.00;2329.60;;;;;;6306713;22;20003;-73
2021/08/28 05:37:48;;;;;;;4.55;4.05;;;359.00;2329.60;;;;;;6307809;22;20474;-73
2021/08/28 05:40:18;;;;;;;5.65;4.20;;;359.10;2329.60;;;;;;6308716;22;20007;-74
2021/08/28 05:42:44;;;;;;;5.22;3.95;;;359.10;2329.60;;;;;;6308173;22;20000;-74
2021/08/28 05:45:10;;;;;;;5.55;4.03;;;359.00;2329.60;;;;;;6307855;22;20005;-73
2021/08/28 05:47:36;;;;;;;4.90;4.20;;;358.90;2329.60;;;;;;6281323;22;19996;-75
2021/08/28 05:50:03;;;;;;;4.38;3.83;;;359.00;2329.60;;;;;;6309306;22;20037;-74
2021/08/28 05:52:29;;;;;;;6.25;3.70;;;359.20;2329.60;;;;;;6281799;22;20011;-70
2021/08/28 05:54:54;;;;;;;4.45;3.75;;;359.30;2329.60;;;;;;6309536;22;20368;-73
2021/08/28 05:57:20;;;;;;;6.78;4.90;;;384.00;2329.60;;;;;;6308984;22;20018;-73
2021/08/28 05:59:45;;;;;;;7.88;5.70;;;384.10;2329.60;;;;;;6308415;22;20027;-74
2021/08/28 06:02:11;;;;;;;6.53;5.15;;;384.30;2329.60;;;;;;6308456;22;20003;-68
2021/08/28 06:04:38;;;;;;;6.22;5.22;;;384.50;2329.60;;;;;;6307803;22;20000;-72
2021/08/28 06:07:03;;;;;;;6.60;5.82;;;384.80;2329.60;;;;;;6280624;22;20368;-72
2021/08/28 06:09:29;;;;;;;9.88;6.82;;;409.60;2355.20;;;;;;6308216;22;20097;-66
2021/08/28 06:11:56;;;;;;;9.63;7.90;;;409.70;2355.20;;;;;;6308272;22;20003;-70
2021/08/28 06:14:22;;;;;;;12.55;7.85;;;409.60;2355.20;;;;;;6280452;22;20417;-67
2021/08/28 06:16:47;;;;;;;8.15;6.82;;;409.80;2355.20;;;;;;6307506;22;20536;-65
2021/08/28 06:19:13;;;;;;;9.07;7.60;;;410.20;2355.20;;;;;;6308239;22;20023;-68
2021/08/28 06:21:39;;;;;;;7.90;6.82;;;410.40;2355.20;;;;;;6307886;22;20029;-65
2021/08/28 06:24:05;;;;;;;7.97;6.97;;;435.40;2355.20;;;;;;6308269;22;20011;-64
2021/08/28 06:26:31;;;;;;;7.65;6.85;;;435.40;2355.20;;;;;;6308233;22;20000;-67
2021/08/28 06:28:57;;;;;;;9.00;7.30;;;435.50;2355.20;;;;;;6307704;22;20120;-65
2021/08/28 06:31:22;;;;;;;8.65;7.15;;;435.50;2355.20;;;;;;6306782;22;20006;-65
2021/08/28 06:33:48;;;;;;;8.98;7.35;;;435.50;2355.20;;;;;;6306494;22;20069;-68
2021/08/28 06:36:14;;;;;;;8.70;7.10;;;435.70;2355.20;;;;;;6307955;22;20325;-65
2021/08/28 06:38:39;;;;;;;8.25;7.30;;;435.90;2355.20;;;;;;6307550;22;20049;-74
2021/08/28 06:41:05;;;;;;;7.90;7.07;;;460.80;2380.80;;;;;;6307781;22;19995;-71
2021/08/28 06:43:31;;;;;;;8.45;7.03;;;461.10;2380.80;;;;;;6309287;22;20436;-67
2021/08/28 06:45:57;;;;;;;7.57;6.72;;;461.30;2380.80;;;;;;6308000;22;19995;-73
2021/08/28 06:48:23;;;;;;;7.43;6.00;;;461.40;2380.80;;;;;;6307360;22;20006;-70
2021/08/28 06:50:49;;;;;;;7.57;6.43;;;461.50;2380.80;;;;;;6308129;22;20003;-67
2021/08/28 06:53:15;;;;;;;7.97;6.45;;;461.50;2380.80;;;;;;6307855;22;19999;-71
2021/08/28 06:55:42;;;;;;;7.90;6.75;;;461.40;2380.80;;;;;;6305469;22;20083;-68
2021/08/28 06:58:07;;;;;;;11.05;6.80;;;461.40;2380.80;;;;;;6307437;22;20007;-73
2021/08/28 07:00:33;;;;;;;7.97;6.90;;;461.40;2380.80;;;;;;6280300;22;20007;-71
2021/08/28 07:02:59;;;;;;;7.38;6.60;;;461.40;2380.80;;;;;;6307343;22;20003;-73
2021/08/28 07:05:25;;;;;;;7.93;6.28;;;461.40;2380.80;;;;;;6307047;22;20032;-64
2021/08/28 07:07:50;;;;;;;7.68;6.38;;;461.40;2380.80;;;;;;6307393;22;19995;-64
2021/08/28 07:10:17;;;;;;;7.88;6.10;;;461.60;2380.80;;;;;;6306930;22;20013;-64
2021/08/28 07:12:43;;;;;;;7.65;5.80;;;461.60;2380.80;;;;;;6307358;22;20317;-64
2021/08/28 07:15:09;;;;;;;10.05;5.93;;;461.50;2380.80;;;;;;6307679;22;20090;-63
2021/08/28 07:17:35;;;;;;;8.57;6.70;;;461.30;2380.80;;;;;;6306765;22;20011;-69
2021/08/28 07:20:02;;;;;;;7.38;6.35;;;461.50;2380.80;;;;;;6307647;22;20002;-71
2021/08/28 07:22:28;;;;;;;7.55;6.15;;;461.60;2380.80;;;;;;6279683;22;20011;-64
2021/08/28 07:24:54;;;;;;;8.13;6.35;;;461.60;2380.80;;;;;;6306906;22;20417;-69
2021/08/28 07:27:23;;;;;;;7.25;6.28;;;461.70;2380.80;;;;;;6306792;22;20007;-65
2021/08/28 07:29:50;;;;;;;7.07;6.15;;;461.70;2380.80;;;;;;6307346;22;20004;-71
2021/08/28 07:32:16;;;;;;;7.53;6.32;;;461.70;2380.80;;;;;;6307497;22;20078;-72
2021/08/28 07:34:42;;;;;;;7.75;6.55;;;461.60;2380.80;;;;;;6306902;22;20082;-71
2021/08/28 07:37:08;;;;;;;8.65;5.60;;;461.40;2380.80;;;;;;6306919;22;20027;-66
2021/08/28 07:39:35;;;;;;;8.77;6.40;;;461.30;2380.80;;;;;;6307347;22;20003;-72
2021/08/28 07:42:01;;;;;;;7.78;6.25;;;461.10;2380.80;;;;;;6307186;22;20325;-63
2021/08/28 07:44:27;;;;;;;7.53;6.00;;;461.10;2380.80;;;;;;6279847;22;19991;-62
2021/08/28 07:46:53;;;;;;;7.80;5.90;;;461.10;2380.80;;;;;;6307197;22;20007;-67
2021/08/28 07:49:19;;;;;;;7.25;5.70;;;460.90;2380.80;;;;;;6307121;22;20003;-67
2021/08/28 07:51:45;;;;;;;7.03;5.57;;;461.10;2380.80;;;;;;6306546;22;20003;-69
2021/08/28 07:54:11;;;;;;;7.95;5.82;;;461.20;2380.80;;;;;;6307040;22;19999;-64
2021/08/28 07:56:37;;;;;;;9.75;5.78;;;461.30;2380.80;;;;;;6279421;22;20451;-68
2021/08/28 07:59:02;;;;;;;8.40;5.90;;;461.40;2380.80;;;;;;6307138;22;20074;-69
2021/08/28 08:01:28;;;;;;;7.88;5.63;;;461.50;2380.80;;;;;;6279667;22;20110;-67
2021/08/28 08:03:54;;;;;;;7.03;5.85;;;461.60;2380.80;;;;;;6307448;22;20066;-65
2021/08/28 08:06:20;;;;;;;8.13;5.85;;;461.60;2380.80;;;;;;6307281;22;20018;-71
2021/08/28 08:08:46;;;;;;;7.57;5.57;;;461.60;2380.80;;;;;;6299223;22;20611;-67
2021/08/28 08:11:15;;;;;;;7.53;5.90;;;461.50;2380.80;;;;;;6306255;22;20047;-71
2021/08/28 08:13:44;;;;;;;7.72;5.68;;;461.40;2380.80;;;;;;6306212;22;20006;-68
2021/08/28 08:16:11;;;;;;;6.95;5.07;;;461.30;2380.80;;;;;;6306976;22;19995;-70
2021/08/28 08:18:37;;;;;;;5.45;4.80;;;461.40;2380.80;;;;;;6307493;22;20122;-69
2021/08/28 08:21:03;;;;;;;6.70;5.20;;;461.50;2380.80;;;;;;6307275;22;20366;-71
2021/08/28 08:23:29;;;;;;;6.32;5.22;;;461.70;2380.80;;;;;;6305406;22;20045;-67
2021/08/28 08:25:55;;;;;;;6.40;5.47;;;461.70;2380.80;;;;;;6307209;22;20065;-65
2021/08/28 08:28:20;;;;;;;6.18;5.07;;;486.40;2380.80;;;;;;6307530;22;20007;-72
2021/08/28 08:30:46;;;;;;;6.20;5.10;;;486.50;2380.80;;;;;;6307803;22;19999;-74
2021/08/28 08:33:12;;;;;;;5.72;5.13;;;486.40;2380.80;;;;;;6308010;22;20026;-71
2021/08/28 08:35:38;;;;;;;5.68;4.80;;;486.70;2380.80;;;;;;6309232;22;20014;-74
2021/08/28 08:38:04;;;;;;;7.38;4.50;;;486.90;2380.80;;;;;;6307155;22;20007;-71
2021/08/28 08:40:30;;;;;;;5.63;4.88;;;486.90;2380.80;;;;;;6307409;22;19995;-74
2021/08/28 08:43:00;;;;;;;5.75;5.00;;;486.70;2380.80;;;;;;6308270;22;20004;-70
2021/08/28 08:45:27;;;;;;;6.43;5.15;;;486.90;2380.80;;;;;;6308061;22;20003;-72
2021/08/28 08:47:54;;;;;;;7.85;5.15;;;487.10;2380.80;;;;;;6306899;22;20047;-73
2021/08/28 08:50:22;;;;;;;5.32;4.55;;;512.00;2380.80;;;;;;6307266;22;19995;-70
2021/08/28 08:52:58;;;;;;;5.22;4.20;;;487.20;2380.80;;;;;;6306995;22;20003;-76
2021/08/28 08:55:25;;;;;;;4.78;4.10;;;487.20;2380.80;;;;;;6307644;22;19999;-71
2021/08/28 08:57:51;;;;;;;5.93;4.20;;;487.20;2380.80;;;;;;6305748;22;20019;-72
2021/08/28 09:00:23;;;;;;;5.40;4.40;;;487.20;2380.80;;;;;;6304686;22;20003;-70
2021/08/28 09:02:48;;;;;;;5.50;4.15;;;487.10;2380.80;;;;;;6305362;22;20011;-64
2021/08/28 09:05:14;;;;;;;5.03;4.18;;;487.00;2380.80;;;;;;6306152;22;20444;-67
2021/08/28 09:07:40;;;;;;;5.53;4.25;;;486.90;2380.80;;;;;;6279816;22;19999;-75
2021/08/28 09:10:06;;;;;;;5.60;4.65;;;486.70;2380.80;;;;;;6306296;22;19999;-73
2021/08/28 09:12:40;;;;;;;7.50;4.97;;;486.60;2380.80;;;;;;6306161;22;20027;-65
2021/08/28 09:15:08;;;;;;;6.13;5.00;;;486.50;2380.80;;;;;;6305653;22;20070;-66
2021/08/28 09:17:35;;;;;;;8.10;5.20;;;486.50;2380.80;;;;;;6306534;22;20018;-69
2021/08/28 09:20:02;;;;;;;6.43;4.53;;;486.50;2380.80;;;;;;6306412;22;20007;-70
2021/08/28 09:22:31;;;;;;;7.13;5.20;;;486.50;2380.80;;;;;;6307578;22;20054;-66
2021/08/28 09:25:00;;;;;;;5.82;5.07;;;486.60;2380.80;;;;;;6306649;22;20291;-72
2021/08/28 09:27:36;;;;;;;7.95;5.25;;;486.80;2380.80;;;;;;6307221;22;19999;-70
2021/08/28 09:30:16;;;;;;;6.97;5.10;;;486.90;2380.80;;;;;;6305753;22;20019;-67
2021/08/28 09:32:49;;;;;;;10.10;5.40;;;486.80;2380.80;;;;;;6306915;22;20382;-71
2021/08/28 09:35:16;;;;;;;7.25;4.90;;;486.90;2380.80;;;;;;6306188;22;20012;-67
2021/08/28 09:37:44;;;;;;;6.38;5.10;;;486.90;2380.80;;;;;;6279797;22;20015;-67
2021/08/28 09:40:10;;;;;;;5.78;4.85;;;486.90;2380.80;;;;;;6277614;22;20100;-67
2021/08/28 09:42:38;;;;;;;6.18;4.70;;;487.10;2380.80;;;;;;6307671;22;20026;-69
2021/08/28 09:45:12;;;;;;;7.38;4.90;;;487.20;2380.80;;;;;;6305603;22;20002;-66
2021/08/28 09:47:41;;;;;;;5.13;4.35;;;512.10;2380.80;;;;;;6306521;22;20007;-66
2021/08/28 09:50:09;;;;;;;5.47;4.07;;;512.10;2380.80;;;;;;6274208;22;20421;-74
2021/08/28 09:52:53;;;;;;;6.10;4.22;;;512.00;2380.80;;;;;;6309370;22;20425;-73
2021/08/28 09:55:22;;;;;;;6.18;4.30;;;512.40;2380.80;;;;;;6306062;22;20131;-70
2021/08/28 09:57:50;;;;;;;5.13;4.10;;;512.60;2380.80;;;;;;6305968;22;20015;-66
2021/08/28 10:00:15;;;;;;;5.45;4.05;;;512.70;2380.80;;;;;;6304682;22;20000;-72
2021/08/28 10:03:04;;;;;;;4.55;3.80;;;512.80;2380.80;;;;;;6306062;22;19999;-73
2021/08/28 10:05:42;;;;;;;5.00;4.15;;;537.60;2406.40;;;;;;6278212;22;20003;-66
2021/08/28 10:08:09;;;;;;;5.22;4.25;;;537.70;2406.40;;;;;;6305300;22;20049;-70
2021/08/28 10:10:38;;;;;;;4.57;3.70;;;537.60;2406.40;;;;;;6306224;22;20003;-70
2021/08/28 10:13:06;;;;;;;4.78;3.67;;;537.80;2406.40;;;;;;6305521;22;20007;-69
2021/08/28 10:15:34;;;;;;;4.30;3.53;;;537.90;2406.40;;;;;;6278787;22;20008;-70
2021/08/28 10:18:03;;;;;;;4.35;3.40;;;537.90;2406.40;;;;;;6305425;22;20015;-69
2021/08/28 10:20:33;;;;;;;4.75;3.70;;;537.90;2406.40;;;;;;6279453;22;20003;-69
2021/08/28 10:23:06;;;;;;;4.70;3.67;;;538.00;2406.40;;;;;;6304969;22;20003;-68
2021/08/28 10:25:39;;;;;;;4.57;3.83;;;537.90;2406.40;;;;;;6278694;22;20375;-70
2021/08/28 10:28:09;;;;;;;5.45;3.80;;;537.90;2406.40;;;;;;6305846;22;19999;-64
2021/08/28 10:30:35;;;;;;;5.55;3.95;;;537.80;2406.40;;;;;;6305714;22;20014;-66
2021/08/28 10:33:01;;;;;;;4.70;3.75;;;537.70;2406.40;;;;;;6305239;22;20482;-67
2021/08/28 10:35:27;;;;;;;4.70;4.10;;;512.90;2380.80;;;;;;6306206;22;20007;-68
2021/08/28 10:37:53;;;;;;;4.35;3.78;;;512.80;2380.80;;;;;;6305420;22;20440;-68
2021/08/28 10:40:25;;;;;;;5.75;4.30;;;512.60;2380.80;;;;;;6278569;22;20003;-71
2021/08/28 10:42:53;;;;;;;5.13;4.10;;;512.70;2380.80;;;;;;6306063;22;20015;-66
2021/08/28 10:45:35;;;;;;;4.80;3.75;;;512.70;2380.80;;;;;;6305772;22;19995;-68
2021/08/28 10:48:04;;;;;;;5.05;3.63;;;512.70;2380.80;;;;;;6305202;22;20003;-65
2021/08/28 10:50:50;;;;;;;5.30;3.60;;;512.80;2380.80;;;;;;6305772;22;20003;-67
2021/08/28 10:53:17;;;;;;;4.43;3.80;;;512.90;2380.80;;;;;;6306009;22;20015;-73
2021/08/28 10:55:45;;;;;;;4.68;3.90;;;537.60;2406.40;;;;;;6278383;22;20329;-65
2021/08/28 10:58:18;;;;;;;4.72;4.13;;;537.70;2406.40;;;;;;6305427;22;20219;-68
2021/08/28 11:00:52;;;;;;;5.03;3.63;;;537.70;2406.40;;;;;;6304699;22;20295;-68
2021/08/28 11:03:29;;;;;;;5.43;3.50;;;537.70;2406.40;;;;;;6305355;22;20000;-68
2021/08/28 11:06:16;;;;;;;5.95;4.20;;;537.70;2406.40;;;;;;6305302;22;20000;-73
2021/08/28 11:08:49;;;;;;;6.10;4.22;;;537.80;2406.40;;;;;;6306224;22;20003;-68
2021/08/28 11:11:24;;;;;;;5.43;4.15;;;537.70;2406.40;;;;;;6277104;22;20059;-68
2021/08/28 11:14:11;;;;;;;4.53;3.67;;;537.80;2406.40;;;;;;6305854;22;20005;-69
2021/08/28 11:16:40;;;;;;;4.57;4.07;;;537.90;2406.40;;;;;;6305521;22;20341;-70
2021/08/28 11:19:09;;;;;;;5.82;4.60;;;538.10;2406.40;;;;;;6304700;22;20038;-70
2021/08/28 11:21:46;;;;;;;5.68;4.38;;;563.70;2432.00;;;;;;6305376;22;20032;-69
2021/08/28 11:24:20;;;;;;;5.78;4.70;;;640.00;2176.00;;;;;;6276880;22;20449;-69
2021/08/28 11:26:52;;;;;;;4.13;3.72;;;640.70;2048.00;;;;;;6278451;22;20064;-66
2021/08/28 11:29:47;;;;;;;4.97;3.78;;;640.90;1971.20;;;;;;6277766;22;20007;-72
2021/08/28 11:32:21;;;;;;;4.53;3.92;;;640.50;2022.40;;;;;;6304567;22;20003;-69
2021/08/28 11:34:52;;;;;;;5.53;4.28;;;640.00;2048.00;;;;;;6305814;22;20019;-71
2021/08/28 11:37:24;;;;;;;5.57;4.43;;;615.00;1996.80;;;;;;6305946;22;20007;-68
2021/08/28 11:39:50;;;;;;;4.65;4.10;;;589.60;2048.00;;;;;;6308390;22;20010;-69
2021/08/28 11:42:17;;;;;;;5.00;3.67;;;589.30;2176.00;;;;;;6308436;22;20022;-68
2021/08/28 11:44:53;;;;;;;5.95;4.20;;;589.10;2176.00;;;;;;6308001;22;20004;-70
2021/08/28 11:47:20;;;;;;;4.75;4.25;;;589.00;2201.60;;;;;;6307134;22;20003;-69
2021/08/28 11:49:52;;;;;;;5.25;4.35;;;588.90;2252.80;;;;;;6308274;22;20007;-69
2021/08/28 11:52:20;;;;;;;5.45;4.15;;;588.80;2252.80;;;;;;6308542;22;20321;-69
2021/08/28 11:54:46;;;;;;;5.10;4.28;;;564.00;2278.40;;;;;;6308155;22;20439;-68
2021/08/28 11:57:13;;;;;;;4.68;4.18;;;564.00;2304.00;;;;;;6280719;22;20019;-69
2021/08/28 11:59:43;;;;;;;5.50;4.55;;;563.70;2304.00;;;;;;6308397;22;20309;-69
2021/08/28 12:02:09;;;;;;;5.28;4.78;;;563.50;2304.00;;;;;;6307775;22;20003;-68
2021/08/28 12:04:36;;;;;;;6.35;4.70;;;563.40;2329.60;;;;;;6308442;22;20352;-70
2021/08/28 12:07:05;;;;;;;5.35;4.38;;;563.40;2304.00;;;;;;6307937;22;20461;-70
2021/08/28 12:09:32;;;;;;;5.80;4.50;;;538.50;2304.00;;;;;;6308275;22;19995;-67
2021/08/28 12:11:59;;;;;;;5.47;4.40;;;563.20;2380.80;;;;;;6280518;22;20026;-67
2021/08/28 12:14:27;;;;;;;4.68;4.05;;;563.20;2380.80;;;;;;6307916;22;19999;-67
2021/08/28 12:16:53;;;;;;;4.85;4.20;;;563.20;2380.80;;;;;;6280571;22;20441;-68